createdAt,value
2023-05-14T00:17:45.103Z,10.92
2023-05-14T00:20:12.462Z,10.81
2023-05-14T00:22:39.873Z,10.74
2023-05-14T00:25:07.689Z,10.81
2023-05-14T00:27:34.492Z,10.91
2023-05-14T00:30:01.149Z,11.07
2023-05-14T00:32:27.793Z,10.91
2023-05-14T00:34:54.496Z,10.79
2023-05-14T00:37:23.732Z,10.87
2023-05-14T00:39:50.361Z,10.81
2023-05-14T00:42:16.981Z,10.97
2023-05-14T00:44:43.545Z,10.88
2023-05-14T00:47:10.153Z,10.90
2023-05-14T00:49:36.896Z,10.92
2023-05-14T00:52:03.712Z,10.84
2023-05-14T00:54:30.674Z,10.88
2023-05-14T00:56:57.355Z,10.60
2023-05-14T00:59:23.944Z,10.61
2023-05-14T01:01:51.195Z,10.53
2023-05-14T01:04:18.048Z,10.32
2023-05-14T01:06:56.487Z,10.21
2023-05-14T01:09:32.614Z,10.22
2023-05-14T01:12:27.560Z,10.39
2023-05-14T01:15:15.465Z,10.56
2023-05-14T01:17:48.844Z,10.64
2023-05-14T01:20:15.632Z,10.55
2023-05-14T01:22:42.730Z,10.52
2023-05-14T01:25:09.704Z,10.40
2023-05-14T01:27:43.671Z,10.25
2023-05-14T01:30:22.305Z,10.01
2023-05-14T01:32:53.831Z,10.02
2023-05-14T01:35:24.648Z,10.12
2023-05-14T01:37:52.195Z,10.16
2023-05-14T01:40:19.411Z,10.09
2023-05-14T01:42:45.995Z,10.12
2023-05-14T01:45:12.686Z,10.11
2023-05-14T01:47:39.297Z,10.16
2023-05-14T01:50:06.436Z,10.05
2023-05-14T01:52:34.415Z,10.28
2023-05-14T01:55:01.328Z,10.19
2023-05-14T01:57:29.244Z,10.08
2023-05-14T01:59:55.746Z,10.15
2023-05-14T02:02:22.403Z,10.06
2023-05-14T02:04:50.885Z,9.95
2023-05-14T02:07:17.438Z,10.03
2023-05-14T02:09:44.177Z,10.11
2023-05-14T02:12:11.824Z,9.98
2023-05-14T02:14:38.957Z,10.06
2023-05-14T02:17:05.960Z,10.21
2023-05-14T02:19:32.559Z,10.03
2023-05-14T02:22:00.140Z,9.91
2023-05-14T02:24:27.171Z,9.82
2023-05-14T02:26:53.840Z,9.87
2023-05-14T02:29:20.584Z,9.92
2023-05-14T02:31:47.196Z,9.85
2023-05-14T02:34:13.793Z,9.80
2023-05-14T02:36:40.385Z,9.80
2023-05-14T02:39:06.955Z,9.33
2023-05-14T02:41:33.528Z,9.30
2023-05-14T02:44:00.157Z,9.36
2023-05-14T02:46:27.043Z,9.30
2023-05-14T02:48:53.666Z,9.27
2023-05-14T02:51:21.569Z,9.41
2023-05-14T02:53:48.154Z,9.39
2023-05-14T02:56:14.973Z,9.33
2023-05-14T02:58:41.788Z,9.53
2023-05-14T03:01:08.919Z,9.44
2023-05-14T03:03:38.428Z,9.27
2023-05-14T03:06:06.030Z,9.43
2023-05-14T03:08:32.595Z,9.43
2023-05-14T03:10:59.187Z,9.36
2023-05-14T03:13:25.904Z,9.26
2023-05-14T03:15:55.130Z,9.24
2023-05-14T03:18:22.794Z,9.27
2023-05-14T03:20:49.368Z,9.44
2023-05-14T03:23:16.088Z,9.41
2023-05-14T03:25:42.677Z,9.24
2023-05-14T03:28:09.913Z,9.30
2023-05-14T03:30:36.651Z,9.24
2023-05-14T03:33:03.453Z,9.24
2023-05-14T03:35:30.474Z,9.20
2023-05-14T03:37:59.372Z,9.20
2023-05-14T03:40:26.415Z,8.85
2023-05-14T03:42:53.073Z,8.78
2023-05-14T03:45:19.747Z,8.88
2023-05-14T03:47:46.375Z,8.78
2023-05-14T03:50:13.467Z,8.82
2023-05-14T03:52:40.750Z,8.82
2023-05-14T03:55:07.646Z,9.02
2023-05-14T03:57:34.230Z,8.98
2023-05-14T04:00:01.010Z,9.08
2023-05-14T04:02:27.659Z,8.78
2023-05-14T04:04:54.670Z,8.72
2023-05-14T04:07:21.339Z,8.58
2023-05-14T04:09:47.921Z,8.53
2023-05-14T04:12:14.513Z,8.58
2023-05-14T04:14:41.320Z,8.72
2023-05-14T04:17:07.890Z,8.68
2023-05-14T04:19:34.601Z,8.88
2023-05-14T04:22:01.293Z,8.72
2023-05-14T04:24:27.896Z,8.64
2023-05-14T04:26:54.531Z,8.78
2023-05-14T04:29:21.217Z,8.83
2023-05-14T04:31:49.683Z,8.85
2023-05-14T04:34:16.324Z,8.69
2023-05-14T04:36:42.929Z,8.72
2023-05-14T04:39:10.044Z,8.86
2023-05-14T04:41:36.954Z,8.88
2023-05-14T04:44:03.652Z,8.88
2023-05-14T04:46:30.556Z,9.13
2023-05-14T04:48:57.826Z,9.30
2023-05-14T04:51:24.566Z,9.34
2023-05-14T04:53:51.112Z,9.20
2023-05-14T04:56:17.832Z,9.26
2023-05-14T04:58:44.455Z,9.53
2023-05-14T05:01:11.168Z,9.69
2023-05-14T05:03:39.688Z,9.64
2023-05-14T05:06:06.834Z,9.65
2023-05-14T05:08:33.441Z,9.74
2023-05-14T05:11:00.467Z,9.88
2023-05-14T05:13:27.032Z,9.85
2023-05-14T05:15:53.705Z,10.05
2023-05-14T05:18:20.570Z,10.15
2023-05-14T05:20:47.234Z,10.18
2023-05-14T05:23:13.888Z,10.22
2023-05-14T05:25:40.447Z,10.26
2023-05-14T05:28:07.173Z,10.29
2023-05-14T05:30:33.914Z,10.36
2023-05-14T05:33:00.508Z,10.43
2023-05-14T05:35:27.303Z,10.55
2023-05-14T05:37:53.974Z,10.61
2023-05-14T05:40:20.612Z,10.74
2023-05-14T05:42:47.219Z,10.77
2023-05-14T05:45:13.983Z,10.91
2023-05-14T05:47:41.009Z,11.00
2023-05-14T05:50:08.203Z,11.12
2023-05-14T05:52:34.840Z,11.32
2023-05-14T05:55:04.269Z,11.48
2023-05-14T05:57:31.166Z,11.25
2023-05-14T05:59:58.444Z,11.35
2023-05-14T06:02:25.444Z,11.45
2023-05-14T06:04:53.312Z,11.49
2023-05-14T06:07:20.293Z,11.50
2023-05-14T06:09:47.341Z,11.62
2023-05-14T06:12:13.955Z,11.69
2023-05-14T06:14:40.657Z,11.60
2023-05-14T06:17:07.745Z,11.73
2023-05-14T06:19:34.409Z,11.76
2023-05-14T06:22:01.092Z,11.82
2023-05-14T06:24:27.679Z,11.91
2023-05-14T06:26:54.323Z,11.96
2023-05-14T06:33:40.868Z,12.14
2023-05-14T06:36:08.480Z,12.14
2023-05-14T06:38:35.795Z,12.27
2023-05-14T06:41:04.120Z,12.29
2023-05-14T06:43:30.798Z,12.37
2023-05-14T06:45:58.568Z,12.55
2023-05-14T06:48:28.533Z,12.64
2023-05-14T06:50:55.524Z,12.79
2023-05-14T06:53:22.357Z,13.07
2023-05-14T06:55:49.214Z,13.28
2023-05-14T06:58:15.973Z,13.50
2023-05-14T07:00:44.236Z,13.53
2023-05-14T07:03:11.001Z,13.57
2023-05-14T07:05:37.609Z,13.81
2023-05-14T07:08:04.399Z,13.94
2023-05-14T07:10:31.114Z,13.91
2023-05-14T07:12:57.772Z,14.06
2023-05-14T07:15:24.394Z,14.15
2023-05-14T07:17:51.109Z,14.32
2023-05-14T07:20:17.814Z,14.57
2023-05-14T07:22:44.414Z,14.60
2023-05-14T07:25:11.113Z,14.50
2023-05-14T07:27:37.682Z,14.63
2023-05-14T07:30:04.586Z,14.71
2023-05-14T07:32:32.025Z,14.95
2023-05-14T07:34:59.033Z,15.06
2023-05-14T07:37:26.649Z,15.31
2023-05-14T07:39:53.949Z,15.47
2023-05-14T07:42:34.389Z,15.62
2023-05-14T07:45:02.483Z,15.74
2023-05-14T07:47:29.979Z,15.90
2023-05-14T07:49:57.506Z,16.15
2023-05-14T07:52:24.673Z,16.35
2023-05-14T07:54:52.140Z,16.46
2023-05-14T07:57:19.501Z,16.61
2023-05-14T07:59:46.651Z,16.84
2023-05-14T08:02:14.206Z,17.50
2023-05-14T08:04:41.179Z,18.10
2023-05-14T08:07:08.703Z,18.72
2023-05-14T08:09:35.425Z,18.99
2023-05-14T08:12:02.196Z,19.47
2023-05-14T08:14:29.025Z,19.77
2023-05-14T08:16:55.752Z,20.01
2023-05-14T08:19:23.380Z,20.00
2023-05-14T08:21:50.012Z,20.15
2023-05-14T08:24:16.577Z,20.07
2023-05-14T08:26:43.462Z,20.56
2023-05-14T08:29:11.567Z,20.56
2023-05-14T08:31:42.334Z,21.31
2023-05-14T08:34:08.902Z,21.04
2023-05-14T08:36:35.717Z,21.03
2023-05-14T08:39:02.401Z,20.98
2023-05-14T08:41:29.237Z,21.18
2023-05-14T08:44:13.423Z,21.18
2023-05-14T08:46:40.938Z,21.68
2023-05-14T08:49:23.204Z,21.79
2023-05-14T08:51:50.198Z,21.42
2023-05-14T08:54:18.056Z,21.51
2023-05-14T08:56:50.515Z,21.21
2023-05-14T08:59:18.336Z,21.61
2023-05-14T09:01:50.469Z,21.55
2023-05-14T09:04:20.742Z,22.22
2023-05-14T09:06:49.718Z,21.59
2023-05-14T09:09:16.616Z,22.23
2023-05-14T09:11:46.744Z,22.65
2023-05-14T09:14:13.598Z,22.63
2023-05-14T09:16:42.942Z,22.87
2023-05-14T09:19:09.713Z,22.63
2023-05-14T09:21:37.307Z,23.65
2023-05-14T09:24:04.144Z,22.98
2023-05-14T09:26:33.054Z,22.82
2023-05-14T09:29:04.733Z,23.01
2023-05-14T09:31:33.233Z,22.04
2023-05-14T09:34:00.924Z,22.20
2023-05-14T09:36:27.568Z,22.80
2023-05-14T09:38:57.003Z,22.82
2023-05-14T09:41:23.769Z,23.39
2023-05-14T09:43:51.614Z,22.40
2023-05-14T09:46:18.538Z,22.06
2023-05-14T09:48:49.166Z,22.75
2023-05-14T09:51:21.109Z,22.61
2023-05-14T09:53:48.043Z,22.92
2023-05-14T09:56:14.828Z,23.25
2023-05-14T09:58:41.385Z,22.65
2023-05-14T10:01:08.413Z,22.65
2023-05-14T10:03:36.132Z,23.07
2023-05-14T10:06:06.568Z,23.53
2023-05-14T10:08:38.725Z,24.69
2023-05-14T10:11:10.170Z,24.69
2023-05-14T10:13:42.691Z,24.45
2023-05-14T10:16:21.966Z,24.11
2023-05-14T10:18:54.168Z,23.86
2023-05-14T10:21:23.107Z,24.27
2023-05-14T10:23:50.595Z,24.11
2023-05-14T10:26:17.214Z,23.22
2023-05-14T10:28:44.328Z,23.11
2023-05-14T10:31:11.087Z,23.39
2023-05-14T10:33:50.486Z,23.74
2023-05-14T10:36:18.595Z,23.15
2023-05-14T10:38:45.473Z,23.63
2023-05-14T10:41:18.159Z,22.39
2023-05-14T10:43:44.978Z,22.64
2023-05-14T10:46:13.610Z,21.74
2023-05-14T10:48:43.260Z,21.96
2023-05-14T10:51:11.248Z,21.82
2023-05-14T10:53:40.758Z,21.66
2023-05-14T10:56:10.154Z,21.89
2023-05-14T10:58:42.432Z,21.69
2023-05-14T11:01:11.143Z,21.71
2023-05-14T11:03:43.137Z,21.34
2023-05-14T11:06:11.605Z,20.87
2023-05-14T11:08:38.997Z,21.07
2023-05-14T11:11:06.551Z,21.64
2023-05-14T11:13:34.725Z,21.56
2023-05-14T11:16:15.064Z,21.44
2023-05-14T11:18:54.221Z,21.52
2023-05-14T11:21:20.910Z,21.44
2023-05-14T11:23:48.341Z,21.74
2023-05-14T11:26:14.893Z,22.16
2023-05-14T11:28:41.668Z,22.68
2023-05-14T11:31:08.291Z,23.52
2023-05-14T11:33:36.270Z,22.55
2023-05-14T11:36:02.965Z,22.20
2023-05-14T11:38:29.594Z,22.20
2023-05-14T11:40:57.307Z,22.55
2023-05-14T11:43:24.984Z,23.36
2023-05-14T11:45:53.467Z,23.22
2023-05-14T11:48:21.241Z,23.15
2023-05-14T11:50:49.076Z,23.56
2023-05-14T11:53:33.544Z,23.71
2023-05-14T11:56:00.361Z,23.94
2023-05-14T11:58:28.486Z,24.01
2023-05-14T12:00:55.918Z,23.66
2023-05-14T12:03:26.750Z,23.70
2023-05-14T12:05:58.191Z,23.70
2023-05-14T12:08:31.996Z,23.07
2023-05-14T12:11:00.389Z,22.19
2023-05-14T12:13:30.953Z,22.12
2023-05-14T12:16:02.179Z,22.14
2023-05-14T12:18:32.622Z,22.23
2023-05-14T12:21:03.634Z,22.39
2023-05-14T12:23:31.335Z,22.32
2023-05-14T12:26:08.900Z,22.32
2023-05-14T12:28:38.520Z,22.48
2023-05-14T12:31:05.640Z,23.30
2023-05-14T12:33:32.369Z,23.59
2023-05-14T12:36:17.599Z,24.00
2023-05-14T12:38:49.130Z,24.39
2023-05-14T12:41:15.868Z,24.82
2023-05-14T12:43:48.210Z,25.68
2023-05-14T12:46:15.107Z,25.70
2023-05-14T12:48:41.660Z,25.50
2023-05-14T12:51:08.262Z,25.43
2023-05-14T12:53:35.467Z,25.78
2023-05-14T12:56:02.106Z,25.80
2023-05-14T12:58:28.824Z,25.74
2023-05-14T13:00:58.157Z,24.87
2023-05-14T13:03:25.324Z,24.68
2023-05-14T13:05:52.527Z,24.13
2023-05-14T13:08:21.643Z,23.81
2023-05-14T13:10:48.339Z,23.73
2023-05-14T13:13:15.914Z,23.97
2023-05-14T13:15:42.805Z,24.69
2023-05-14T13:18:09.562Z,25.81
2023-05-14T13:20:36.655Z,26.11
2023-05-14T13:23:03.366Z,25.95
2023-05-14T13:25:29.963Z,25.37
2023-05-14T13:27:56.642Z,25.07
2023-05-14T13:30:23.426Z,25.40
2023-05-14T13:32:50.086Z,25.84
2023-05-14T13:35:17.045Z,25.88
2023-05-14T13:37:44.619Z,26.47
2023-05-14T13:40:11.747Z,26.57
2023-05-14T13:42:39.960Z,25.85
2023-05-14T13:45:07.183Z,25.89
2023-05-14T13:47:33.965Z,26.18
2023-05-14T13:50:00.713Z,25.47
2023-05-14T13:52:27.401Z,25.19
2023-05-14T13:54:54.009Z,24.22
2023-05-14T13:57:22.212Z,24.58
2023-05-14T13:59:49.381Z,24.86
2023-05-14T14:02:15.931Z,24.65
2023-05-14T14:04:42.542Z,23.89
2023-05-14T14:07:09.349Z,23.39
2023-05-14T14:09:37.036Z,23.16
2023-05-14T14:12:04.882Z,23.28
2023-05-14T14:14:31.761Z,23.40
2023-05-14T14:16:58.472Z,23.21
2023-05-14T14:19:25.144Z,23.52
2023-05-14T14:21:51.736Z,23.49
2023-05-14T14:24:18.285Z,24.08
2023-05-14T14:26:44.985Z,24.87
2023-05-14T14:29:11.536Z,25.57
2023-05-14T14:31:38.147Z,26.06
2023-05-14T14:34:05.744Z,25.47
2023-05-14T14:36:32.436Z,25.04
2023-05-14T14:38:59.096Z,25.04
2023-05-14T14:41:26.815Z,25.43
2023-05-14T14:43:53.522Z,24.24
2023-05-14T14:46:20.175Z,23.83
2023-05-14T14:48:46.892Z,24.55
2023-05-14T14:51:13.777Z,24.61
2023-05-14T14:53:40.725Z,23.79
2023-05-14T14:56:07.547Z,23.69
2023-05-14T14:58:34.226Z,24.58
2023-05-14T15:01:01.504Z,23.60
2023-05-14T15:03:28.290Z,24.45
2023-05-14T15:05:54.972Z,25.02
2023-05-14T15:08:29.867Z,25.45
2023-05-14T15:10:56.981Z,25.50
2023-05-14T15:13:24.853Z,25.17
2023-05-14T15:15:52.707Z,24.69
2023-05-14T15:18:19.631Z,24.52
2023-05-14T15:20:46.336Z,24.05
2023-05-14T15:23:12.998Z,24.14
2023-05-14T15:25:39.703Z,24.51
2023-05-14T15:28:07.658Z,24.80
2023-05-14T15:30:34.327Z,25.31
2023-05-14T15:33:03.809Z,24.95
2023-05-14T15:35:30.492Z,24.01
2023-05-14T15:37:59.636Z,24.38
2023-05-14T15:40:27.650Z,23.93
2023-05-14T15:42:54.553Z,24.05
2023-05-14T15:45:21.304Z,23.67
2023-05-14T15:47:47.944Z,23.60
2023-05-14T15:50:14.534Z,23.22
2023-05-14T15:52:41.620Z,22.84
2023-05-14T15:55:08.854Z,23.53
2023-05-14T15:57:35.476Z,24.04
2023-05-14T16:00:09.918Z,23.96
2023-05-14T16:02:37.840Z,23.93
2023-05-14T16:05:05.088Z,23.97
2023-05-14T16:07:31.716Z,24.13
2023-05-14T16:09:58.315Z,23.56
2023-05-14T16:12:25.048Z,23.40
2023-05-14T16:14:52.810Z,23.28
2023-05-14T16:17:19.503Z,23.52
2023-05-14T16:19:46.142Z,23.58
2023-05-14T16:22:12.687Z,23.76
2023-05-14T16:24:39.415Z,23.67
2023-05-14T16:29:32.661Z,23.33
2023-05-14T16:31:59.386Z,23.33
2023-05-14T16:34:26.012Z,23.45
2023-05-14T16:36:52.630Z,23.58
2023-05-14T16:39:19.442Z,23.62
2023-05-14T16:41:46.093Z,23.59
2023-05-14T16:44:12.650Z,23.67
2023-05-14T16:46:39.508Z,23.62
2023-05-14T16:49:06.220Z,23.49
2023-05-14T16:51:33.044Z,23.01
2023-05-14T16:53:59.788Z,22.87
2023-05-14T16:56:26.864Z,23.08
2023-05-14T16:58:53.558Z,23.32
2023-05-14T17:01:20.236Z,23.32
2023-05-14T17:03:46.895Z,23.09
2023-05-14T17:06:13.527Z,22.92
2023-05-14T17:08:40.131Z,22.82
2023-05-14T17:11:06.807Z,22.47
2023-05-14T17:13:34.106Z,22.50
2023-05-14T17:16:01.254Z,22.61
2023-05-14T17:18:28.359Z,22.40
2023-05-14T17:20:56.468Z,22.40
2023-05-14T17:23:23.040Z,22.48
2023-05-14T17:25:50.012Z,22.36
2023-05-14T17:28:16.737Z,22.26
2023-05-14T17:30:43.959Z,22.27
2023-05-14T17:33:11.894Z,22.23
2023-05-14T17:35:38.981Z,22.12
2023-05-14T17:38:05.869Z,21.92
2023-05-14T17:40:33.316Z,22.12
2023-05-14T17:42:59.846Z,21.86
2023-05-14T17:45:27.043Z,21.90
2023-05-14T17:47:53.885Z,21.55
2023-05-14T17:50:20.601Z,21.32
2023-05-14T17:52:48.523Z,21.24
2023-05-14T17:58:41.715Z,21.01
2023-05-14T18:01:08.831Z,20.75
2023-05-14T18:03:35.769Z,20.87
2023-05-14T18:06:02.416Z,20.52
2023-05-14T18:08:29.034Z,20.63
2023-05-14T18:10:55.687Z,20.53
2023-05-14T18:13:22.362Z,20.45
2023-05-14T18:15:49.025Z,20.39
2023-05-14T18:18:19.204Z,20.30
2023-05-14T18:20:46.010Z,20.26
2023-05-14T18:23:12.895Z,20.22
2023-05-14T18:25:39.668Z,20.26
2023-05-14T18:28:06.765Z,20.30
2023-05-14T18:30:33.528Z,20.28
2023-05-14T18:33:00.275Z,20.26
2023-05-14T18:35:27.984Z,20.18
2023-05-14T18:37:55.112Z,20.11
2023-05-14T18:40:21.871Z,20.00
2023-05-14T18:42:48.527Z,19.78
2023-05-14T18:45:15.407Z,19.90
2023-05-14T18:47:42.077Z,19.64
2023-05-14T18:50:09.146Z,19.74
2023-05-14T18:52:35.800Z,19.59
2023-05-14T18:55:02.419Z,19.59
2023-05-14T18:57:34.936Z,19.57
2023-05-14T19:00:02.187Z,19.51
2023-05-14T19:02:29.008Z,19.35
2023-05-14T19:04:56.234Z,19.22
2023-05-14T19:07:23.118Z,19.24
2023-05-14T19:09:49.842Z,19.29
2023-05-14T19:12:16.615Z,19.29
2023-05-14T19:14:44.262Z,19.38
2023-05-14T19:17:11.193Z,19.39
2023-05-14T19:19:39.409Z,19.32
2023-05-14T19:22:06.573Z,19.38
2023-05-14T19:24:33.247Z,19.30
2023-05-14T19:26:59.882Z,19.23
2023-05-14T19:29:26.504Z,19.23
2023-05-14T19:31:53.212Z,19.19
2023-05-14T19:34:20.024Z,19.18
2023-05-14T19:36:46.961Z,19.22
2023-05-14T19:39:13.575Z,19.12
2023-05-14T19:41:40.216Z,19.13
2023-05-14T19:44:06.805Z,19.19
2023-05-14T19:46:33.893Z,19.18
2023-05-14T19:49:00.536Z,19.19
2023-05-14T19:51:27.196Z,19.22
2023-05-14T19:53:53.876Z,19.18
2023-05-14T19:56:21.721Z,19.15
2023-05-14T19:58:48.384Z,19.16
2023-05-14T20:01:15.211Z,19.15
2023-05-14T20:03:42.027Z,19.02
2023-05-14T20:06:08.902Z,18.87
2023-05-14T20:08:36.497Z,18.72
2023-05-14T20:11:03.478Z,18.60
2023-05-14T20:13:36.282Z,18.54
2023-05-14T20:16:03.157Z,18.52
2023-05-14T20:18:31.124Z,18.52
2023-05-14T20:20:57.880Z,18.48
2023-05-14T20:23:24.523Z,18.43
2023-05-14T20:25:51.381Z,18.38
2023-05-14T20:28:18.028Z,18.14
2023-05-14T20:30:44.671Z,18.20
2023-05-14T20:33:13.066Z,18.17
2023-05-14T20:35:42.004Z,18.06
2023-05-14T20:38:09.323Z,18.05
2023-05-14T20:40:37.297Z,17.93
2023-05-14T20:43:03.890Z,18.00
2023-05-14T20:45:30.748Z,17.93
2023-05-14T20:47:57.457Z,17.95
2023-05-14T20:50:27.136Z,17.86
2023-05-14T20:52:54.259Z,17.83
2023-05-14T20:55:21.968Z,17.79
2023-05-14T20:57:49.781Z,17.85
2023-05-14T21:00:16.813Z,17.79
2023-05-14T21:02:43.584Z,17.89
2023-05-14T21:05:10.662Z,17.75
2023-05-14T21:07:37.547Z,17.66
2023-05-14T21:10:04.723Z,17.76
2023-05-14T21:12:31.414Z,17.69
2023-05-14T21:14:59.406Z,17.69
2023-05-14T21:17:26.419Z,17.59
2023-05-14T21:19:53.091Z,17.58
2023-05-14T21:22:19.697Z,17.52
2023-05-14T21:24:46.384Z,17.52
2023-05-14T21:27:12.993Z,17.42
2023-05-14T21:29:39.886Z,17.38
2023-05-14T21:32:07.132Z,17.24
2023-05-14T21:34:33.764Z,17.20
2023-05-14T21:37:02.476Z,17.20
2023-05-14T21:39:29.061Z,17.24
2023-05-14T21:41:55.832Z,17.24
2023-05-14T21:44:23.017Z,17.14
2023-05-14T21:46:49.951Z,17.10
2023-05-14T21:49:16.518Z,17.06
2023-05-14T21:51:43.090Z,17.04
2023-05-14T21:54:10.136Z,17.06
2023-05-14T21:56:37.331Z,16.90
2023-05-14T21:59:04.198Z,16.90
2023-05-14T22:01:32.559Z,16.86
2023-05-14T22:04:00.617Z,16.79
2023-05-14T22:06:27.556Z,16.79
2023-05-14T22:08:54.208Z,16.79
2023-05-14T22:11:21.976Z,16.79
2023-05-14T22:13:48.596Z,16.68
2023-05-14T22:16:15.182Z,16.62
2023-05-14T22:18:41.880Z,16.34
2023-05-14T22:21:08.504Z,16.22
2023-05-14T22:23:35.181Z,16.10
2023-05-14T22:26:01.828Z,16.26
2023-05-14T22:28:28.508Z,16.10
2023-05-14T22:30:56.551Z,15.90
2023-05-14T22:33:23.426Z,15.94
2023-05-14T22:35:50.023Z,15.81
2023-05-14T22:38:17.797Z,15.80
2023-05-14T22:40:44.665Z,15.76
2023-05-14T22:43:11.326Z,15.71
2023-05-14T22:45:37.945Z,15.70
2023-05-14T22:48:04.793Z,15.45
2023-05-14T22:50:31.438Z,15.01
2023-05-14T22:52:58.052Z,14.89
2023-05-14T22:55:24.925Z,14.89
2023-05-14T22:57:51.649Z,14.85
2023-05-14T23:00:18.381Z,14.99
2023-05-14T23:02:45.089Z,15.01
2023-05-14T23:05:12.157Z,15.22
2023-05-14T23:07:38.785Z,15.04
2023-05-14T23:10:05.919Z,14.81
2023-05-14T23:12:32.512Z,14.89
2023-05-14T23:14:59.345Z,14.85
2023-05-14T23:17:26.148Z,14.99
2023-05-14T23:19:53.046Z,14.91
2023-05-14T23:22:19.652Z,14.71
2023-05-14T23:24:47.440Z,14.46
2023-05-14T23:27:14.010Z,14.47
2023-05-14T23:29:40.641Z,14.40
2023-05-14T23:32:07.581Z,14.44
2023-05-14T23:34:34.820Z,14.43
2023-05-14T23:37:01.597Z,14.16
2023-05-14T23:39:28.341Z,14.08
2023-05-14T23:41:54.931Z,14.20
2023-05-14T23:44:21.683Z,14.01
2023-05-14T23:46:48.706Z,14.13
2023-05-14T23:49:15.368Z,14.23
2023-05-14T23:51:42.289Z,14.05
2023-05-14T23:54:08.885Z,14.10
2023-05-14T23:56:35.909Z,14.16
